sensor_id;sensor_type;location;lat;lon;timestamp;pressure;altitude;pressure_sealevel;temperature;humidity
46942;BME280;32676;52.630;4.896;2023-12-07T00:01:10;100029.72;;;1.90;82.28
46942;BME280;32676;52.630;4.896;2023-12-07T00:03:36;100013.38;;;1.83;82.26
46942;BME280;32676;52.630;4.896;2023-12-07T00:06:04;100011.66;;;1.82;82.11
46942;BME280;32676;52.630;4.896;2023-12-07T00:08:31;100009.06;;;1.82;82.19
46942;BME280;32676;52.630;4.896;2023-12-07T00:10:57;99997.91;;;1.77;82.23
46942;BME280;32676;52.630;4.896;2023-12-07T00:13:24;99996.16;;;1.79;82.10
46942;BME280;32676;52.630;4.896;2023-12-07T00:15:50;99990.09;;;1.80;82.06
46942;BME280;32676;52.630;4.896;2023-12-07T00:18:17;99980.63;;;1.76;82.31
46942;BME280;32676;52.630;4.896;2023-12-07T00:20:44;99935.97;;;1.52;82.27
46942;BME280;32676;52.630;4.896;2023-12-07T00:23:12;99976.34;;;1.73;82.31
46942;BME280;32676;52.630;4.896;2023-12-07T00:25:39;99966.84;;;1.71;82.35
46942;BME280;32676;52.630;4.896;2023-12-07T00:28:05;99951.41;;;1.65;82.36
46942;BME280;32676;52.630;4.896;2023-12-07T00:30:31;99934.19;;;1.61;82.31
46942;BME280;32676;52.630;4.896;2023-12-07T00:32:59;99872.38;;;1.30;82.34
46942;BME280;32676;52.630;4.896;2023-12-07T00:35:25;99916.09;;;1.58;82.20
46942;BME280;32676;52.630;4.896;2023-12-07T00:37:54;99904.88;;;1.56;82.24
46942;BME280;32676;52.630;4.896;2023-12-07T00:40:22;99904.06;;;1.53;82.22
46942;BME280;32676;52.630;4.896;2023-12-07T00:42:49;99896.28;;;1.53;82.26
46942;BME280;32676;52.630;4.896;2023-12-07T00:45:15;99873.94;;;1.46;82.26
46942;BME280;32676;52.630;4.896;2023-12-07T00:47:42;99868.78;;;1.43;82.26
46942;BME280;32676;52.630;4.896;2023-12-07T00:50:11;99851.56;;;1.39;82.42
46942;BME280;32676;52.630;4.896;2023-12-07T00:52:39;99827.56;;;1.25;82.17
46942;BME280;32676;52.630;4.896;2023-12-07T00:55:06;99794.88;;;1.14;82.31
46942;BME280;32676;52.630;4.896;2023-12-07T00:57:33;99811.97;;;1.31;82.20
46942;BME280;32676;52.630;4.896;2023-12-07T01:00:00;99801.66;;;1.28;82.28
46942;BME280;32676;52.630;4.896;2023-12-07T01:02:26;99782.72;;;1.23;82.38
46942;BME280;32676;52.630;4.896;2023-12-07T01:04:53;99787.88;;;1.26;82.44
46942;BME280;32676;52.630;4.896;2023-12-07T01:07:19;99776.69;;;1.24;82.45
46942;BME280;32676;52.630;4.896;2023-12-07T01:09:46;99777.59;;;1.20;82.48
46942;BME280;32676;52.630;4.896;2023-12-07T01:12:13;99772.47;;;1.17;82.59
46942;BME280;32676;52.630;4.896;2023-12-07T01:14:40;99765.53;;;1.19;82.70
46942;BME280;32676;52.630;4.896;2023-12-07T01:17:07;99756.94;;;1.17;82.83
46942;BME280;32676;52.630;4.896;2023-12-07T01:19:33;99750.94;;;1.13;83.01
46942;BME280;32676;52.630;4.896;2023-12-07T01:22:00;99763.78;;;1.19;82.96
46942;BME280;32676;52.630;4.896;2023-12-07T01:24:26;99771.53;;;1.21;83.02
46942;BME280;32676;52.630;4.896;2023-12-07T01:26:54;99784.47;;;1.24;83.26
46942;BME280;32676;52.630;4.896;2023-12-07T01:29:20;99778.47;;;1.20;83.26
46942;BME280;32676;52.630;4.896;2023-12-07T01:31:48;99792.19;;;1.25;83.25
46942;BME280;32676;52.630;4.896;2023-12-07T01:34:16;99783.63;;;1.20;83.43
46942;BME280;32676;52.630;4.896;2023-12-07T01:36:43;99763.84;;;1.14;83.45
46942;BME280;32676;52.630;4.896;2023-12-07T01:39:09;99774.13;;;1.21;83.45
46942;BME280;32676;52.630;4.896;2023-12-07T01:41:37;99763.84;;;1.14;83.35
46942;BME280;32676;52.630;4.896;2023-12-07T01:44:04;99776.72;;;1.19;83.39
46942;BME280;32676;52.630;4.896;2023-12-07T01:46:31;99775.84;;;1.22;83.34
46942;BME280;32676;52.630;4.896;2023-12-07T01:49:00;99795.66;;;1.24;83.20
46942;BME280;32676;52.630;4.896;2023-12-07T01:51:27;99803.34;;;1.29;83.32
46942;BME280;32676;52.630;4.896;2023-12-07T01:53:54;99826.63;;;1.32;83.33
46942;BME280;32676;52.630;4.896;2023-12-07T01:56:21;99832.63;;;1.34;83.35
46942;BME280;32676;52.630;4.896;2023-12-07T01:58:49;99841.25;;;1.36;83.45
46942;BME280;32676;52.630;4.896;2023-12-07T02:01:16;99851.56;;;1.39;83.55
46942;BME280;32676;52.630;4.896;2023-12-07T02:03:43;99853.28;;;1.40;83.58
46942;BME280;32676;52.630;4.896;2023-12-07T02:06:10;99858.47;;;1.40;83.40
46942;BME280;32676;52.630;4.896;2023-12-07T02:08:38;99865.34;;;1.41;83.40
46942;BME280;32676;52.630;4.896;2023-12-07T02:11:07;99865.34;;;1.41;83.44
46942;BME280;32676;52.630;4.896;2023-12-07T02:13:34;99866.25;;;1.39;83.48
46942;BME280;32676;52.630;4.896;2023-12-07T02:16:04;99876.53;;;1.43;83.45
46942;BME280;32676;52.630;4.896;2023-12-07T02:18:38;99874.84;;;1.42;83.52
46942;BME280;32676;52.630;4.896;2023-12-07T02:21:13;99863.66;;;1.40;83.35
46942;BME280;32676;52.630;4.896;2023-12-07T02:23:42;99849.91;;;1.35;83.40
46942;BME280;32676;52.630;4.896;2023-12-07T02:26:11;99848.13;;;1.37;83.38
46942;BME280;32676;52.630;4.896;2023-12-07T02:28:41;99840.41;;;1.32;83.29
46942;BME280;32676;52.630;4.896;2023-12-07T02:31:07;99846.41;;;1.36;83.35
46942;BME280;32676;52.630;4.896;2023-12-07T02:33:33;99835.22;;;1.34;83.32
46942;BME280;32676;52.630;4.896;2023-12-07T02:36:00;99836.97;;;1.33;83.27
46942;BME280;32676;52.630;4.896;2023-12-07T02:38:28;99811.19;;;1.23;83.34
46942;BME280;32676;52.630;4.896;2023-12-07T02:40:54;99807.75;;;1.24;83.45
46942;BME280;32676;52.630;4.896;2023-12-07T02:43:22;99792.25;;;1.21;83.39
46942;BME280;32676;52.630;4.896;2023-12-07T02:45:50;99779.34;;;1.18;83.44
46942;BME280;32676;52.630;4.896;2023-12-07T02:48:16;99755.25;;;1.12;83.18
46942;BME280;32676;52.630;4.896;2023-12-07T02:50:43;99738.03;;;1.08;83.24
46942;BME280;32676;52.630;4.896;2023-12-07T02:53:09;99732.91;;;1.05;83.19
46942;BME280;32676;52.630;4.896;2023-12-07T02:55:36;99725.13;;;1.05;83.22
46942;BME280;32676;52.630;4.896;2023-12-07T02:58:03;99726.88;;;1.03;83.27
46942;BME280;32676;52.630;4.896;2023-12-07T03:00:30;99687.56;;;0.76;83.25
46942;BME280;32676;52.630;4.896;2023-12-07T03:02:57;99736.31;;;1.07;83.41
46942;BME280;32676;52.630;4.896;2023-12-07T03:05:24;99734.63;;;1.06;83.53
46942;BME280;32676;52.630;4.896;2023-12-07T03:07:50;99732.91;;;1.05;83.52
46942;BME280;32676;52.630;4.896;2023-12-07T03:10:17;99744.97;;;1.08;83.81
46942;BME280;32676;52.630;4.896;2023-12-07T03:12:43;99760.47;;;1.09;83.60
46942;BME280;32676;52.630;4.896;2023-12-07T03:15:10;99763.88;;;1.11;83.75
46942;BME280;32676;52.630;4.896;2023-12-07T03:17:38;99760.41;;;1.12;83.80
46942;BME280;32676;52.630;4.896;2023-12-07T03:20:07;99775.06;;;1.15;83.66
46942;BME280;32676;52.630;4.896;2023-12-07T03:22:35;99782.84;;;1.13;83.80
46942;BME280;32676;52.630;4.896;2023-12-07T03:25:02;99810.34;;;1.24;83.85
46942;BME280;32676;52.630;4.896;2023-12-07T03:27:28;99827.53;;;1.28;83.95
46942;BME280;32676;52.630;4.896;2023-12-07T03:29:55;99837.84;;;1.31;83.98
46942;BME280;32676;52.630;4.896;2023-12-07T03:32:21;99842.16;;;1.29;84.02
46942;BME280;32676;52.630;4.896;2023-12-07T03:34:48;99856.81;;;1.33;84.07
46942;BME280;32676;52.630;4.896;2023-12-07T03:37:15;99818.94;;;1.26;83.92
46942;BME280;32676;52.630;4.896;2023-12-07T03:39:42;99818.06;;;1.25;83.83
46942;BME280;32676;52.630;4.896;2023-12-07T03:42:08;99791.44;;;1.15;83.55
46942;BME280;32676;52.630;4.896;2023-12-07T03:44:35;99748.41;;;1.08;83.29
46942;BME280;32676;52.630;4.896;2023-12-07T03:47:01;99707.13;;;0.96;83.05
46942;BME280;32676;52.630;4.896;2023-12-07T03:49:28;99647.88;;;0.77;82.63
46942;BME280;32676;52.630;4.896;2023-12-07T03:51:54;99624.63;;;0.76;82.31
46942;BME280;32676;52.630;4.896;2023-12-07T03:54:22;99595.44;;;0.66;82.35
46942;BME280;32676;52.630;4.896;2023-12-07T03:56:48;99561.94;;;0.60;82.24
46942;BME280;32676;52.630;4.896;2023-12-07T03:59:15;99546.44;;;0.57;82.16
46942;BME280;32676;52.630;4.896;2023-12-07T04:01:41;99531.88;;;0.53;82.25
46942;BME280;32676;52.630;4.896;2023-12-07T04:04:08;99533.59;;;0.51;82.37
46942;BME280;32676;52.630;4.896;2023-12-07T04:06:34;99524.97;;;0.50;82.40
46942;BME280;32676;52.630;4.896;2023-12-07T04:09:01;99527.56;;;0.50;82.54
46942;BME280;32676;52.630;4.896;2023-12-07T04:11:29;99525.84;;;0.51;82.50
46942;BME280;32676;52.630;4.896;2023-12-07T04:13:55;99524.13;;;0.50;82.67
46942;BME280;32676;52.630;4.896;2023-12-07T04:16:22;99503.53;;;0.44;82.85
46942;BME280;32676;52.630;4.896;2023-12-07T04:18:48;99472.72;;;0.28;82.99
46942;BME280;32676;52.630;4.896;2023-12-07T04:21:15;99505.25;;;0.45;83.05
46942;BME280;32676;52.630;4.896;2023-12-07T04:23:41;99492.34;;;0.42;82.99
46942;BME280;32676;52.630;4.896;2023-12-07T04:26:08;99475.19;;;0.37;83.15
46942;BME280;32676;52.630;4.896;2023-12-07T04:28:36;99460.59;;;0.33;83.16
46942;BME280;32676;52.630;4.896;2023-12-07T04:31:02;99447.72;;;0.30;83.09
46942;BME280;32676;52.630;4.896;2023-12-07T04:33:29;99447.72;;;0.30;83.03
46942;BME280;32676;52.630;4.896;2023-12-07T04:35:55;99432.31;;;0.24;83.01
46942;BME280;32676;52.630;4.896;2023-12-07T04:38:22;99430.59;;;0.23;83.11
46942;BME280;32676;52.630;4.896;2023-12-07T04:40:48;99434.88;;;0.26;83.06
46942;BME280;32676;52.630;4.896;2023-12-07T04:43:15;99416.84;;;0.21;83.09
46942;BME280;32676;52.630;4.896;2023-12-07T04:45:42;99418.56;;;0.22;83.14
46942;BME280;32676;52.630;4.896;2023-12-07T04:48:09;99428.84;;;0.25;83.07
46942;BME280;32676;52.630;4.896;2023-12-07T04:50:35;99440.91;;;0.26;83.27
46942;BME280;32676;52.630;4.896;2023-12-07T04:53:02;99453.78;;;0.29;83.39
46942;BME280;32676;52.630;4.896;2023-12-07T04:55:28;99446.03;;;0.29;83.47
46942;BME280;32676;52.630;4.896;2023-12-07T04:57:54;99452.03;;;0.30;83.49
46942;BME280;32676;52.630;4.896;2023-12-07T05:00:21;99440.91;;;0.26;83.70
46942;BME280;32676;52.630;4.896;2023-12-07T05:02:49;99442.59;;;0.27;83.72
46942;BME280;32676;52.630;4.896;2023-12-07T05:05:15;99430.59;;;0.23;83.73
46942;BME280;32676;52.630;4.896;2023-12-07T05:07:41;99416.00;;;0.19;83.78
46942;BME280;32676;52.630;4.896;2023-12-07T05:10:08;99419.44;;;0.21;83.69
46942;BME280;32676;52.630;4.896;2023-12-07T05:12:35;99416.03;;;0.17;83.80
46942;BME280;32676;52.630;4.896;2023-12-07T05:15:02;99422.84;;;0.22;83.82
46942;BME280;32676;52.630;4.896;2023-12-07T05:17:29;99423.72;;;0.22;83.70
46942;BME280;32676;52.630;4.896;2023-12-07T05:19:57;99431.44;;;0.24;83.98
46942;BME280;32676;52.630;4.896;2023-12-07T05:22:24;99431.44;;;0.24;84.01
46942;BME280;32676;52.630;4.896;2023-12-07T05:24:50;99434.91;;;0.24;84.05
46942;BME280;32676;52.630;4.896;2023-12-07T05:27:17;99428.84;;;0.24;84.08
46942;BME280;32676;52.630;4.896;2023-12-07T05:29:43;99434.91;;;0.24;84.07
46942;BME280;32676;52.630;4.896;2023-12-07T05:32:09;99429.75;;;0.23;84.09
46942;BME280;32676;52.630;4.896;2023-12-07T05:34:36;99453.78;;;0.28;84.15
46942;BME280;32676;52.630;4.896;2023-12-07T05:37:04;99443.50;;;0.23;84.08
46942;BME280;32676;52.630;4.896;2023-12-07T05:39:30;99436.66;;;0.22;84.15
46942;BME280;32676;52.630;4.896;2023-12-07T05:41:57;99447.75;;;0.27;84.19
46942;BME280;32676;52.630;4.896;2023-12-07T05:44:23;99443.50;;;0.25;84.07
46942;BME280;32676;52.630;4.896;2023-12-07T05:46:50;99431.47;;;0.22;84.09
46942;BME280;32676;52.630;4.896;2023-12-07T05:49:16;99411.72;;;0.18;84.07
46942;BME280;32676;52.630;4.896;2023-12-07T05:51:43;99415.19;;;0.17;83.98
46942;BME280;32676;52.630;4.896;2023-12-07T05:54:11;99408.31;;;0.14;83.88
46942;BME280;32676;52.630;4.896;2023-12-07T05:56:37;99386.84;;;0.11;83.93
46942;BME280;32676;52.630;4.896;2023-12-07T05:59:04;99379.16;;;0.08;83.58
46942;BME280;32676;52.630;4.896;2023-12-07T06:01:30;99390.31;;;0.10;83.74
46942;BME280;32676;52.630;4.896;2023-12-07T06:03:57;99386.00;;;0.09;83.64
46942;BME280;32676;52.630;4.896;2023-12-07T06:06:23;99393.75;;;0.10;83.54
46942;BME280;32676;52.630;4.896;2023-12-07T06:08:50;99374.84;;;0.05;83.73
46942;BME280;32676;52.630;4.896;2023-12-07T06:11:17;99386.84;;;0.11;83.64
46942;BME280;32676;52.630;4.896;2023-12-07T06:13:44;99400.59;;;0.13;83.59
46942;BME280;32676;52.630;4.896;2023-12-07T06:16:13;99399.72;;;0.14;83.51
46942;BME280;32676;52.630;4.896;2023-12-07T06:18:42;99416.94;;;0.15;83.70
46942;BME280;32676;52.630;4.896;2023-12-07T06:21:08;99414.34;;;0.15;83.60
46942;BME280;32676;52.630;4.896;2023-12-07T06:23:35;99410.94;;;0.13;83.80
46942;BME280;32676;52.630;4.896;2023-12-07T06:26:02;99404.88;;;0.14;83.74
46942;BME280;32676;52.630;4.896;2023-12-07T06:28:31;99403.19;;;0.13;83.88
46942;BME280;32676;52.630;4.896;2023-12-07T06:31:04;99396.34;;;0.09;83.97
46942;BME280;32676;52.630;4.896;2023-12-07T06:33:31;99410.03;;;0.14;83.99
46942;BME280;32676;52.630;4.896;2023-12-07T06:35:57;99403.19;;;0.13;83.98
46942;BME280;32676;52.630;4.896;2023-12-07T06:38:24;99410.03;;;0.14;83.90
46942;BME280;32676;52.630;4.896;2023-12-07T06:40:50;99420.38;;;0.15;84.09
46942;BME280;32676;52.630;4.896;2023-12-07T06:43:16;99401.50;;;0.09;84.12
46942;BME280;32676;52.630;4.896;2023-12-07T06:45:44;99418.63;;;0.16;84.09
46942;BME280;32676;52.630;4.896;2023-12-07T06:48:11;99427.22;;;0.18;84.19
46942;BME280;32676;52.630;4.896;2023-12-07T06:50:39;99427.22;;;0.18;84.16
46942;BME280;32676;52.630;4.896;2023-12-07T06:53:05;99430.69;;;0.17;83.96
46942;BME280;32676;52.630;4.896;2023-12-07T06:55:31;99430.69;;;0.17;84.21
46942;BME280;32676;52.630;4.896;2023-12-07T06:57:59;99425.50;;;0.17;84.21
46942;BME280;32676;52.630;4.896;2023-12-07T07:00:25;99432.38;;;0.18;84.19
46942;BME280;32676;52.630;4.896;2023-12-07T07:02:53;99435.81;;;0.20;84.16
46942;BME280;32676;52.630;4.896;2023-12-07T07:05:19;99434.09;;;0.19;84.31
46942;BME280;32676;52.630;4.896;2023-12-07T07:07:46;99394.75;;;-0.02;84.43
46942;BME280;32676;52.630;4.896;2023-12-07T07:10:12;99422.97;;;0.12;84.51
46942;BME280;32676;52.630;4.896;2023-12-07T07:12:39;99415.22;;;0.14;84.58
46942;BME280;32676;52.630;4.896;2023-12-07T07:15:07;99401.50;;;0.09;84.58
46942;BME280;32676;52.630;4.896;2023-12-07T07:17:33;99399.81;;;0.08;84.62
46942;BME280;32676;52.630;4.896;2023-12-07T07:20:01;99401.50;;;0.09;84.42
46942;BME280;32676;52.630;4.896;2023-12-07T07:22:27;99402.38;;;0.09;84.60
46942;BME280;32676;52.630;4.896;2023-12-07T07:24:54;99393.75;;;0.07;84.48
46942;BME280;32676;52.630;4.896;2023-12-07T07:27:20;99392.09;;;0.05;84.43
46942;BME280;32676;52.630;4.896;2023-12-07T07:29:47;99381.78;;;0.03;84.50
46942;BME280;32676;52.630;4.896;2023-12-07T07:32:13;99399.81;;;0.08;84.55
46942;BME280;32676;52.630;4.896;2023-12-07T07:34:40;99406.66;;;0.09;84.56
46942;BME280;32676;52.630;4.896;2023-12-07T07:37:08;99416.97;;;0.12;84.64
46942;BME280;32676;52.630;4.896;2023-12-07T07:39:34;99422.97;;;0.14;84.70
46942;BME280;32676;52.630;4.896;2023-12-07T07:42:01;99417.00;;;0.09;84.78
46942;BME280;32676;52.630;4.896;2023-12-07T07:44:27;99427.28;;;0.15;84.90
46942;BME280;32676;52.630;4.896;2023-12-07T07:46:54;99429.84;;;0.15;84.86
46942;BME280;32676;52.630;4.896;2023-12-07T07:49:20;99420.38;;;0.14;84.83
46942;BME280;32676;52.630;4.896;2023-12-07T07:51:47;99422.97;;;0.14;84.98
46942;BME280;32676;52.630;4.896;2023-12-07T07:54:15;99434.13;;;0.16;84.96
46942;BME280;32676;52.630;4.896;2023-12-07T07:56:42;99427.28;;;0.15;85.04
46942;BME280;32676;52.630;4.896;2023-12-07T07:59:09;99422.13;;;0.12;84.94
46942;BME280;32676;52.630;4.896;2023-12-07T08:01:36;99435.88;;;0.15;84.95
46942;BME280;32676;52.630;4.896;2023-12-07T08:04:03;99447.88;;;0.18;84.92
46942;BME280;32676;52.630;4.896;2023-12-07T08:06:29;99454.75;;;0.21;85.04
46942;BME280;32676;52.630;4.896;2023-12-07T08:08:56;99462.47;;;0.22;85.02
46942;BME280;32676;52.630;4.896;2023-12-07T08:11:23;99484.78;;;0.29;85.09
46942;BME280;32676;52.630;4.896;2023-12-07T08:13:50;99509.72;;;0.30;85.03
46942;BME280;32676;52.630;4.896;2023-12-07T08:16:17;99521.69;;;0.37;84.98
46942;BME280;32676;52.630;4.896;2023-12-07T08:18:44;99519.13;;;0.36;84.94
46942;BME280;32676;52.630;4.896;2023-12-07T08:21:18;99520.84;;;0.37;84.80
46942;BME280;32676;52.630;4.896;2023-12-07T08:23:45;99525.19;;;0.36;84.78
46942;BME280;32676;52.630;4.896;2023-12-07T08:26:11;99539.75;;;0.41;84.27
46942;BME280;32676;52.630;4.896;2023-12-07T08:28:40;99555.25;;;0.41;84.41
46942;BME280;32676;52.630;4.896;2023-12-07T08:31:07;99575.81;;;0.50;84.17
46942;BME280;32676;52.630;4.896;2023-12-07T08:33:33;99595.59;;;0.54;84.18
46942;BME280;32676;52.630;4.896;2023-12-07T08:36:00;99608.47;;;0.57;84.01
46942;BME280;32676;52.630;4.896;2023-12-07T08:38:26;99629.97;;;0.62;83.96
46942;BME280;32676;52.630;4.896;2023-12-07T08:40:53;99647.16;;;0.66;83.78
46942;BME280;32676;52.630;4.896;2023-12-07T08:43:21;99641.97;;;0.66;83.67
46942;BME280;32676;52.630;4.896;2023-12-07T08:45:50;99660.91;;;0.68;83.54
46942;BME280;32676;52.630;4.896;2023-12-07T08:48:17;99681.50;;;0.74;83.59
46942;BME280;32676;52.630;4.896;2023-12-07T08:50:43;99692.72;;;0.76;83.29
46942;BME280;32676;52.630;4.896;2023-12-07T08:53:10;99685.81;;;0.77;83.36
46942;BME280;32676;52.630;4.896;2023-12-07T08:55:36;99675.59;;;0.66;83.29
46942;BME280;32676;52.630;4.896;2023-12-07T08:58:03;99704.75;;;0.79;83.38
46942;BME280;32676;52.630;4.896;2023-12-07T09:00:30;99725.34;;;0.85;83.48
46942;BME280;32676;52.630;4.896;2023-12-07T09:02:58;99735.69;;;0.87;83.37
46942;BME280;32676;52.630;4.896;2023-12-07T09:05:26;99734.00;;;0.86;83.53
46942;BME280;32676;52.630;4.896;2023-12-07T09:07:52;99740.84;;;0.88;83.42
46942;BME280;32676;52.630;4.896;2023-12-07T09:10:19;99733.16;;;0.84;83.64
46942;BME280;32676;52.630;4.896;2023-12-07T09:12:46;99743.44;;;0.88;83.60
46942;BME280;32676;52.630;4.896;2023-12-07T09:15:12;99746.88;;;0.89;83.68
46942;BME280;32676;52.630;4.896;2023-12-07T09:17:39;99743.44;;;0.87;83.54
46942;BME280;32676;52.630;4.896;2023-12-07T09:20:09;99749.44;;;0.90;83.78
46942;BME280;32676;52.630;4.896;2023-12-07T09:22:37;99735.69;;;0.85;83.72
46942;BME280;32676;52.630;4.896;2023-12-07T09:25:05;99736.59;;;0.86;83.74
46942;BME280;32676;52.630;4.896;2023-12-07T09:27:33;99748.59;;;0.90;83.84
46942;BME280;32676;52.630;4.896;2023-12-07T09:30:00;99724.59;;;0.79;83.97
46942;BME280;32676;52.630;4.896;2023-12-07T09:32:26;99760.63;;;0.91;84.06
46942;BME280;32676;52.630;4.896;2023-12-07T09:34:53;99780.44;;;0.95;84.15
46942;BME280;32676;52.630;4.896;2023-12-07T09:37:21;99776.13;;;0.95;84.17
46942;BME280;32676;52.630;4.896;2023-12-07T09:39:47;99776.13;;;0.94;84.17
46942;BME280;32676;52.630;4.896;2023-12-07T09:42:14;99770.97;;;0.94;84.08
46942;BME280;32676;52.630;4.896;2023-12-07T09:44:40;99795.06;;;0.99;83.96
46942;BME280;32676;52.630;4.896;2023-12-07T09:47:07;99808.81;;;1.01;84.02
46942;BME280;32676;52.630;4.896;2023-12-07T09:49:34;99787.28;;;0.99;84.19
46942;BME280;32676;52.630;4.896;2023-12-07T09:52:00;99795.03;;;1.01;84.14
46942;BME280;32676;52.630;4.896;2023-12-07T09:54:30;99808.81;;;1.01;84.32
46942;BME280;32676;52.630;4.896;2023-12-07T09:56:56;99817.44;;;1.03;84.36
46942;BME280;32676;52.630;4.896;2023-12-07T09:59:23;99840.63;;;1.11;84.39
46942;BME280;32676;52.630;4.896;2023-12-07T10:01:49;99829.50;;;1.04;84.53
46942;BME280;32676;52.630;4.896;2023-12-07T10:04:19;99869.06;;;1.15;84.56
46942;BME280;32676;52.630;4.896;2023-12-07T10:06:48;99860.50;;;1.07;84.58
46942;BME280;32676;52.630;4.896;2023-12-07T10:09:14;99875.91;;;1.20;84.69
46942;BME280;32676;52.630;4.896;2023-12-07T10:11:42;99913.78;;;1.27;84.58
46942;BME280;32676;52.630;4.896;2023-12-07T10:14:09;99924.97;;;1.30;84.69
46942;BME280;32676;52.630;4.896;2023-12-07T10:16:36;99944.75;;;1.36;84.51
46942;BME280;32676;52.630;4.896;2023-12-07T10:19:12;99958.59;;;1.37;84.56
46942;BME280;32676;52.630;4.896;2023-12-07T10:21:39;99990.41;;;1.46;84.65
46942;BME280;32676;52.630;4.896;2023-12-07T10:24:06;99998.16;;;1.49;84.47
46942;BME280;32676;52.630;4.896;2023-12-07T10:26:33;99995.56;;;1.49;84.34
46942;BME280;32676;52.630;4.896;2023-12-07T10:29:04;100000.78;;;1.45;84.31
46942;BME280;32676;52.630;4.896;2023-12-07T10:31:30;99991.28;;;1.45;83.96
46942;BME280;32676;52.630;4.896;2023-12-07T10:33:58;99996.44;;;1.45;84.00
46942;BME280;32676;52.630;4.896;2023-12-07T10:36:24;100021.41;;;1.52;83.92
46942;BME280;32676;52.630;4.896;2023-12-07T10:38:51;99998.19;;;1.43;84.13
46942;BME280;32676;52.630;4.896;2023-12-07T10:41:19;99963.78;;;1.32;84.30
46942;BME280;32676;52.630;4.896;2023-12-07T10:43:48;99974.91;;;1.42;84.16
46942;BME280;32676;52.630;4.896;2023-12-07T10:46:19;99988.69;;;1.45;84.16
46942;BME280;32676;52.630;4.896;2023-12-07T10:48:47;100010.22;;;1.50;84.25
46942;BME280;32676;52.630;4.896;2023-12-07T10:51:17;100008.53;;;1.49;84.32
46942;BME280;32676;52.630;4.896;2023-12-07T10:53:51;99994.69;;;1.47;84.39
46942;BME280;32676;52.630;4.896;2023-12-07T10:56:24;100005.06;;;1.47;84.25
46942;BME280;32676;52.630;4.896;2023-12-07T10:58:52;100006.78;;;1.48;84.20
46942;BME280;32676;52.630;4.896;2023-12-07T11:01:22;100024.00;;;1.52;84.52
46942;BME280;32676;52.630;4.896;2023-12-07T11:03:49;100030.91;;;1.57;84.40
46942;BME280;32676;52.630;4.896;2023-12-07T11:06:18;100031.75;;;1.56;84.44
46942;BME280;32676;52.630;4.896;2023-12-07T11:08:47;100029.16;;;1.54;84.46
46942;BME280;32676;52.630;4.896;2023-12-07T11:11:21;100034.34;;;1.52;84.37
46942;BME280;32676;52.630;4.896;2023-12-07T11:13:53;100050.72;;;1.59;84.57
46942;BME280;32676;52.630;4.896;2023-12-07T11:16:30;100036.94;;;1.54;84.41
46942;BME280;32676;52.630;4.896;2023-12-07T11:18:56;100013.69;;;1.49;84.32
46942;BME280;32676;52.630;4.896;2023-12-07T11:21:23;100022.31;;;1.51;84.35
46942;BME280;32676;52.630;4.896;2023-12-07T11:23:50;100001.63;;;1.45;84.30
46942;BME280;32676;52.630;4.896;2023-12-07T11:26:19;100002.50;;;1.46;84.23
46942;BME280;32676;52.630;4.896;2023-12-07T11:28:45;99989.56;;;1.44;84.30
46942;BME280;32676;52.630;4.896;2023-12-07T11:31:12;100008.53;;;1.46;84.44
46942;BME280;32676;52.630;4.896;2023-12-07T11:33:41;100010.22;;;1.47;84.58
46942;BME280;32676;52.630;4.896;2023-12-07T11:36:08;99996.50;;;1.39;84.45
46942;BME280;32676;52.630;4.896;2023-12-07T11:38:36;99995.63;;;1.42;84.57
46942;BME280;32676;52.630;4.896;2023-12-07T11:41:03;100015.41;;;1.47;84.51
46942;BME280;32676;52.630;4.896;2023-12-07T11:43:42;100020.59;;;1.47;84.65
46942;BME280;32676;52.630;4.896;2023-12-07T11:46:12;100006.81;;;1.45;84.60
46942;BME280;32676;52.630;4.896;2023-12-07T11:48:46;99993.06;;;1.40;84.66
46942;BME280;32676;52.630;4.896;2023-12-07T11:51:13;99991.31;;;1.42;84.66
46942;BME280;32676;52.630;4.896;2023-12-07T11:53:39;100008.53;;;1.46;84.65
46942;BME280;32676;52.630;4.896;2023-12-07T11:56:07;100000.84;;;1.39;84.52
46942;BME280;32676;52.630;4.896;2023-12-07T11:58:36;100024.06;;;1.49;84.69
46942;BME280;32676;52.630;4.896;2023-12-07T12:01:03;100041.28;;;1.53;84.79
46942;BME280;32676;52.630;4.896;2023-12-07T12:03:31;100030.94;;;1.50;84.82
46942;BME280;32676;52.630;4.896;2023-12-07T12:06:02;100017.13;;;1.48;84.85
46942;BME280;32676;52.630;4.896;2023-12-07T12:08:29;100022.31;;;1.48;85.02
46942;BME280;32676;52.630;4.896;2023-12-07T12:10:56;100034.41;;;1.49;84.82
46942;BME280;32676;52.630;4.896;2023-12-07T12:13:26;100034.41;;;1.48;84.91
46942;BME280;32676;52.630;4.896;2023-12-07T12:15:53;100055.06;;;1.56;84.87
46942;BME280;32676;52.630;4.896;2023-12-07T12:18:21;100067.09;;;1.60;84.80
46942;BME280;32676;52.630;4.896;2023-12-07T12:20:50;100053.31;;;1.54;84.73
46942;BME280;32676;52.630;4.896;2023-12-07T12:23:17;100032.69;;;1.48;84.83
46942;BME280;32676;52.630;4.896;2023-12-07T12:25:44;100044.72;;;1.52;84.74
46942;BME280;32676;52.630;4.896;2023-12-07T12:28:11;100036.09;;;1.50;84.85
46942;BME280;32676;52.630;4.896;2023-12-07T12:30:41;100027.56;;;1.42;84.71
46942;BME280;32676;52.630;4.896;2023-12-07T12:33:08;100043.88;;;1.50;84.94
46942;BME280;32676;52.630;4.896;2023-12-07T12:35:34;100038.69;;;1.52;84.79
46942;BME280;32676;52.630;4.896;2023-12-07T12:38:01;100037.84;;;1.51;84.85
46942;BME280;32676;52.630;4.896;2023-12-07T12:40:31;100060.22;;;1.56;84.87
46942;BME280;32676;52.630;4.896;2023-12-07T12:42:58;100056.78;;;1.57;85.01
46942;BME280;32676;52.630;4.896;2023-12-07T12:45:25;100055.91;;;1.54;85.07
46942;BME280;32676;52.630;4.896;2023-12-07T12:47:52;100043.88;;;1.50;84.80
46942;BME280;32676;52.630;4.896;2023-12-07T12:50:36;100065.41;;;1.56;84.93
46942;BME280;32676;52.630;4.896;2023-12-07T12:53:04;100054.22;;;1.53;84.99
46942;BME280;32676;52.630;4.896;2023-12-07T12:55:38;100049.91;;;1.52;85.06
46942;BME280;32676;52.630;4.896;2023-12-07T12:58:07;100043.03;;;1.45;84.91
46942;BME280;32676;52.630;4.896;2023-12-07T13:00:34;100060.25;;;1.51;85.19
46942;BME280;32676;52.630;4.896;2023-12-07T13:03:03;100068.00;;;1.57;85.19
46942;BME280;32676;52.630;4.896;2023-12-07T13:05:30;100063.69;;;1.54;85.13
46942;BME280;32676;52.630;4.896;2023-12-07T13:07:59;100072.31;;;1.57;85.05
46942;BME280;32676;52.630;4.896;2023-12-07T13:10:25;100078.34;;;1.59;85.22